createdAt,value
2023-05-11T00:01:14.667Z,5.63
2023-05-11T00:06:17.414Z,6.63
2023-05-11T00:11:20.168Z,7.07
2023-05-11T00:16:22.761Z,7.97
2023-05-11T00:21:25.308Z,8.23
2023-05-11T00:26:27.809Z,7.23
2023-05-11T00:31:30.655Z,5.90
2023-05-11T00:36:33.710Z,6.77
2023-05-11T00:41:36.529Z,6.03
2023-05-11T00:46:39.196Z,5.53
2023-05-11T00:51:41.646Z,6.20
2023-05-11T00:56:44.161Z,4.97
2023-05-11T01:01:46.832Z,4.50
2023-05-11T01:07:04.342Z,4.77
2023-05-11T01:12:09.039Z,4.10
2023-05-11T01:17:19.531Z,6.30
2023-05-11T01:22:32.128Z,4.80
2023-05-11T01:27:55.753Z,5.93
2023-05-11T01:33:00.624Z,5.00
2023-05-11T01:38:04.639Z,4.87
2023-05-11T01:43:10.626Z,4.63
2023-05-11T01:48:20.728Z,5.10
2023-05-11T01:53:23.791Z,5.27
2023-05-11T01:58:27.771Z,5.53
2023-05-11T02:03:32.067Z,4.73
2023-05-11T02:08:35.028Z,5.83
2023-05-11T02:13:39.735Z,5.30
2023-05-11T02:18:43.039Z,7.93
2023-05-11T02:23:47.258Z,7.27
2023-05-11T02:28:50.567Z,5.93
2023-05-11T02:33:54.282Z,7.80
2023-05-11T02:39:03.744Z,6.13
2023-05-11T02:44:08.260Z,5.82
2023-05-11T02:49:12.051Z,5.07
2023-05-11T02:54:15.657Z,4.87
2023-05-11T02:59:23.652Z,5.70
2023-05-11T03:04:26.271Z,5.07
2023-05-11T03:09:29.226Z,6.37
2023-05-11T03:14:33.662Z,5.67
2023-05-11T03:19:37.450Z,5.17
2023-05-11T03:24:40.588Z,5.87
2023-05-11T03:29:44.949Z,6.30
2023-05-11T03:34:47.883Z,7.13
2023-05-11T03:39:56.831Z,5.67
2023-05-11T03:45:01.442Z,5.17
2023-05-11T03:50:08.103Z,4.20
2023-05-11T03:55:11.145Z,4.60
2023-05-11T04:00:14.188Z,4.23
2023-05-11T04:05:20.644Z,4.57
2023-05-11T04:10:23.921Z,5.00
2023-05-11T04:15:26.263Z,3.70
2023-05-11T04:20:28.715Z,3.90
2023-05-11T04:25:31.048Z,4.17
2023-05-11T04:30:33.545Z,3.70
2023-05-11T04:35:40.024Z,4.10
2023-05-11T04:40:43.715Z,4.43
2023-05-11T04:45:52.780Z,4.83
2023-05-11T04:50:59.826Z,4.27
2023-05-11T04:56:06.890Z,3.47
2023-05-11T05:01:09.632Z,3.73
2023-05-11T05:06:12.242Z,3.70
2023-05-11T05:11:14.905Z,2.83
2023-05-11T05:16:17.533Z,3.83
2023-05-11T05:21:20.158Z,2.93
2023-05-11T05:26:24.312Z,3.10
2023-05-11T05:31:27.302Z,2.83
2023-05-11T05:36:30.656Z,3.07
2023-05-11T05:41:33.115Z,3.60
2023-05-11T05:46:36.903Z,2.80
2023-05-11T05:51:39.854Z,2.30
2023-05-11T05:56:43.182Z,2.67
2023-05-11T06:01:48.381Z,2.13
2023-05-11T06:06:51.626Z,2.93
2023-05-11T06:11:54.530Z,2.33
2023-05-11T06:16:59.149Z,2.07
2023-05-11T06:22:06.727Z,2.00
2023-05-11T06:27:11.666Z,1.90
2023-05-11T06:32:15.426Z,2.67
2023-05-11T06:37:21.435Z,2.00
2023-05-11T06:42:26.119Z,1.90
2023-05-11T06:47:39.828Z,1.90
2023-05-11T06:52:42.390Z,2.00
2023-05-11T06:57:46.149Z,2.37
2023-05-11T07:02:48.865Z,2.87
2023-05-11T07:07:51.668Z,2.33
2023-05-11T07:12:54.283Z,1.57
2023-05-11T07:17:56.926Z,1.97
2023-05-11T07:22:59.736Z,2.00
2023-05-11T07:28:02.265Z,2.07
2023-05-11T07:33:04.847Z,1.90
2023-05-11T07:38:12.204Z,2.03
2023-05-11T07:43:14.747Z,1.93
2023-05-11T07:48:18.475Z,1.80
2023-05-11T07:53:21.050Z,1.60
2023-05-11T07:58:23.701Z,2.83
2023-05-11T08:03:26.254Z,2.30
2023-05-11T08:08:28.812Z,1.50
2023-05-11T08:13:32.080Z,1.63
2023-05-11T08:18:34.691Z,1.50
2023-05-11T08:23:37.629Z,1.90
2023-05-11T08:28:40.185Z,1.80
2023-05-11T08:33:42.795Z,2.03
2023-05-11T08:38:45.352Z,1.77
2023-05-11T08:43:49.228Z,1.50
2023-05-11T08:48:51.695Z,1.80
2023-05-11T08:53:54.995Z,2.20
2023-05-11T08:58:58.305Z,1.83
2023-05-11T09:04:01.042Z,2.00
2023-05-11T09:09:04.097Z,1.90
2023-05-11T09:14:06.865Z,2.20
2023-05-11T09:19:15.731Z,1.80
2023-05-11T09:24:20.856Z,1.37
2023-05-11T09:29:23.664Z,2.00
2023-05-11T09:34:27.108Z,1.80
2023-05-11T09:39:42.201Z,2.00
2023-05-11T09:44:58.075Z,1.40
2023-05-11T09:50:00.517Z,1.97
2023-05-11T09:55:11.136Z,1.90
2023-05-11T10:00:16.968Z,1.57
2023-05-11T10:05:21.950Z,1.57
2023-05-11T10:10:24.888Z,1.80
2023-05-11T10:15:31.037Z,1.30
2023-05-11T10:20:33.678Z,3.00
2023-05-11T10:25:38.105Z,1.30
2023-05-11T10:30:41.520Z,1.00
2023-05-11T10:35:46.801Z,1.43
2023-05-11T10:40:49.924Z,1.27
2023-05-11T10:46:17.317Z,1.30
2023-05-11T10:51:38.451Z,1.00
2023-05-11T10:56:53.711Z,1.30
2023-05-11T11:01:59.436Z,1.20
2023-05-11T11:07:09.247Z,1.20
2023-05-11T11:12:12.646Z,1.50
2023-05-11T11:17:15.244Z,1.23
2023-05-11T11:22:36.603Z,1.40
2023-05-11T11:27:42.107Z,1.40
2023-05-11T11:32:46.317Z,1.30
2023-05-11T11:38:07.315Z,1.27
2023-05-11T11:43:19.585Z,1.40
2023-05-11T11:48:24.418Z,1.30
2023-05-11T11:53:41.530Z,1.70
2023-05-11T11:58:44.803Z,1.53
2023-05-11T12:03:52.811Z,2.20
2023-05-11T12:08:55.489Z,2.10
2023-05-11T12:13:58.684Z,3.17
2023-05-11T12:19:02.293Z,2.23
2023-05-11T12:24:06.095Z,2.30
2023-05-11T12:29:09.509Z,2.33
2023-05-11T12:34:19.198Z,2.60
2023-05-11T12:39:26.734Z,2.03
2023-05-11T12:44:29.765Z,1.63
2023-05-11T12:49:32.755Z,2.07
2023-05-11T12:54:39.679Z,1.67
2023-05-11T12:59:42.312Z,1.70
2023-05-11T13:04:47.209Z,1.63
2023-05-11T13:10:00.364Z,2.00
2023-05-11T13:15:06.443Z,1.67
2023-05-11T13:20:22.616Z,1.90
2023-05-11T13:25:25.355Z,1.33
2023-05-11T13:30:28.667Z,1.60
2023-05-11T13:35:31.445Z,1.60
2023-05-11T13:40:35.339Z,1.50
2023-05-11T13:45:40.537Z,1.50
2023-05-11T13:50:43.284Z,1.70
2023-05-11T13:55:48.456Z,1.37
2023-05-11T14:01:06.710Z,1.40
2023-05-11T14:06:10.640Z,1.53
2023-05-11T14:11:14.657Z,1.50
2023-05-11T14:16:17.989Z,1.60
2023-05-11T14:21:21.156Z,1.40
2023-05-11T14:26:23.775Z,1.60
2023-05-11T14:31:26.586Z,1.80
2023-05-11T14:36:29.111Z,1.43
2023-05-11T14:41:31.602Z,1.77
2023-05-11T14:46:35.760Z,2.00
2023-05-11T14:51:39.675Z,1.90
2023-05-11T14:56:42.250Z,1.50
2023-05-11T15:01:44.934Z,1.83
2023-05-11T15:06:47.448Z,1.57
2023-05-11T15:11:50.019Z,1.80
2023-05-11T15:16:55.098Z,1.97
2023-05-11T15:21:57.840Z,2.70
2023-05-11T15:27:00.630Z,1.67
2023-05-11T15:32:03.211Z,1.83
2023-05-11T15:37:06.407Z,1.47
2023-05-11T15:42:08.830Z,1.80
2023-05-11T15:47:12.396Z,2.07
2023-05-11T15:52:14.845Z,1.73
2023-05-11T15:57:17.333Z,2.67
2023-05-11T16:02:19.917Z,1.97
2023-05-11T16:07:22.619Z,1.73
2023-05-11T16:12:25.192Z,1.60
2023-05-11T16:17:27.877Z,1.93
2023-05-11T16:22:31.562Z,2.00
2023-05-11T16:27:34.390Z,3.90
2023-05-11T16:32:37.191Z,3.63
2023-05-11T16:37:40.804Z,4.63
2023-05-11T16:42:43.637Z,2.60
2023-05-11T16:47:47.389Z,2.80
2023-05-11T16:52:50.024Z,3.77
2023-05-11T16:57:55.722Z,24.07
2023-05-11T17:02:58.835Z,20.43
2023-05-11T17:08:01.526Z,8.00
2023-05-11T17:13:04.661Z,4.63
2023-05-11T17:18:07.327Z,3.93
2023-05-11T17:23:09.888Z,3.10
2023-05-11T17:28:12.556Z,2.50
2023-05-11T17:33:15.892Z,2.20
2023-05-11T17:38:18.720Z,4.17
2023-05-11T17:43:21.191Z,2.23
2023-05-11T17:48:24.556Z,2.37
2023-05-11T17:53:27.743Z,3.30
2023-05-11T17:58:30.412Z,3.67
2023-05-11T18:03:33.117Z,3.90
2023-05-11T18:08:37.033Z,4.30
2023-05-11T18:13:40.008Z,3.70
2023-05-11T18:18:43.059Z,4.10
2023-05-11T18:23:46.612Z,12.23
2023-05-11T18:28:49.463Z,6.60
2023-05-11T18:33:52.116Z,3.97
2023-05-11T18:38:54.556Z,4.00
2023-05-11T18:43:57.283Z,4.30
2023-05-11T18:49:02.683Z,3.70
2023-05-11T18:54:05.523Z,3.53
2023-05-11T18:59:08.385Z,4.27
2023-05-11T19:04:10.913Z,4.23
2023-05-11T19:09:15.486Z,3.17
2023-05-11T19:14:21.338Z,3.30
2023-05-11T19:19:26.119Z,3.60
2023-05-11T19:24:30.139Z,3.57
2023-05-11T19:35:14.438Z,4.67
2023-05-11T19:45:33.122Z,4.17
2023-05-11T19:50:36.776Z,4.93
2023-05-11T19:55:41.033Z,4.57
2023-05-11T20:00:43.725Z,5.67
2023-05-11T20:05:47.216Z,4.00
2023-05-11T20:10:49.989Z,5.13
2023-05-11T20:15:52.527Z,5.67
2023-05-11T20:20:55.168Z,5.03
2023-05-11T20:25:57.664Z,5.87
2023-05-11T20:31:00.145Z,4.63
2023-05-11T20:36:02.819Z,4.97
2023-05-11T20:41:05.703Z,3.77
2023-05-11T20:46:08.110Z,3.97
2023-05-11T20:51:10.723Z,4.00
2023-05-11T20:56:13.880Z,3.63
2023-05-11T21:01:16.360Z,3.70
2023-05-11T21:06:19.165Z,4.17
2023-05-11T21:11:22.436Z,4.77
2023-05-11T21:16:25.002Z,4.77
2023-05-11T21:21:27.842Z,6.50
2023-05-11T21:26:30.783Z,4.90
2023-05-11T21:31:33.490Z,4.30
2023-05-11T21:36:36.484Z,4.70
2023-05-11T21:41:39.402Z,6.10
2023-05-11T21:46:42.109Z,5.47
2023-05-11T21:51:44.624Z,5.60
2023-05-11T21:56:47.079Z,4.87
2023-05-11T22:01:50.016Z,4.70
2023-05-11T22:06:52.741Z,4.97
2023-05-11T22:11:55.322Z,4.83
2023-05-11T22:16:57.900Z,4.10
2023-05-11T22:22:00.476Z,3.67
2023-05-11T22:27:03.136Z,4.93
2023-05-11T22:32:06.071Z,4.67
2023-05-11T22:37:08.801Z,4.33
2023-05-11T22:42:11.289Z,4.57
2023-05-11T22:47:13.999Z,6.17
2023-05-11T22:52:16.746Z,4.40
2023-05-11T22:57:19.284Z,4.90
2023-05-11T23:02:21.889Z,4.10
2023-05-11T23:07:24.605Z,4.33
2023-05-11T23:12:27.046Z,4.17
2023-05-11T23:17:29.688Z,4.53
2023-05-11T23:22:33.123Z,4.00
2023-05-11T23:27:35.636Z,4.80
2023-05-11T23:32:38.290Z,4.60
2023-05-11T23:37:41.070Z,5.57
2023-05-11T23:42:44.060Z,4.23
2023-05-11T23:47:46.791Z,3.90
2023-05-11T23:52:50.067Z,4.23
2023-05-11T23:57:52.568Z,5.80
